< < Back
Terminal Aerodrome Forecast


Current Version              Previous Versions:   1  2  3  4  5  6  7  8  9  

Terminal Aerodrome Forecast

745
FTUS42 KTAE 312320
TAFABY
TAF
KABY 312320Z 0100/0124 09008KT P6SM VCSH SCT050 OVC100
     FM010500 11004KT 5SM BR SCT040 BKN100
     FM011800 13007KT 5SM SHRA BKN020 OVC040=

Latest METAR

089
SAUS70 KWBC 010300 RRU
MTRABY
METAR KABY 010253Z AUTO 18003KT 10SM CLR 24/23 A2991 RMK AO2 SLP127
T02440228 51013


USA.gov is the U.S. government's official web portal to all federal, state and local government web resources and services.